sensor_id;sensor_type;location;lat;lon;timestamp;temperature;humidity
54576;DHT22;40472;53.486;14.542;2023-03-25T00:00:55;7.40;99.90
54576;DHT22;40472;53.486;14.542;2023-03-25T00:03:28;7.40;99.90
54576;DHT22;40472;53.486;14.542;2023-03-25T00:05:55;7.40;99.90
54576;DHT22;40472;53.486;14.542;2023-03-25T00:08:25;7.30;99.90
54576;DHT22;40472;53.486;14.542;2023-03-25T00:10:56;7.30;99.90
54576;DHT22;40472;53.486;14.542;2023-03-25T00:13:22;7.30;99.90
54576;DHT22;40472;53.486;14.542;2023-03-25T00:15:50;7.20;99.90
54576;DHT22;40472;53.486;14.542;2023-03-25T00:18:19;7.20;99.90
54576;DHT22;40472;53.486;14.542;2023-03-25T00:20:48;7.20;99.90
54576;DHT22;40472;53.486;14.542;2023-03-25T00:23:16;7.10;99.90
54576;DHT22;40472;53.486;14.542;2023-03-25T00:25:42;7.00;99.90
54576;DHT22;40472;53.486;14.542;2023-03-25T00:28:10;7.00;99.90
54576;DHT22;40472;53.486;14.542;2023-03-25T00:30:40;7.10;99.90
54576;DHT22;40472;53.486;14.542;2023-03-25T00:33:07;7.10;99.90
54576;DHT22;40472;53.486;14.542;2023-03-25T00:35:36;7.00;99.90
54576;DHT22;40472;53.486;14.542;2023-03-25T00:38:03;7.10;99.90
54576;DHT22;40472;53.486;14.542;2023-03-25T00:40:31;7.00;99.90
54576;DHT22;40472;53.486;14.542;2023-03-25T00:43:01;7.00;99.90
54576;DHT22;40472;53.486;14.542;2023-03-25T00:45:27;7.00;99.90
54576;DHT22;40472;53.486;14.542;2023-03-25T00:47:54;7.10;99.90
54576;DHT22;40472;53.486;14.542;2023-03-25T00:50:20;7.10;99.90
54576;DHT22;40472;53.486;14.542;2023-03-25T00:52:47;7.00;99.90
54576;DHT22;40472;53.486;14.542;2023-03-25T00:55:12;7.10;99.90
54576;DHT22;40472;53.486;14.542;2023-03-25T00:57:38;7.10;99.90
54576;DHT22;40472;53.486;14.542;2023-03-25T01:00:09;7.10;99.90
54576;DHT22;40472;53.486;14.542;2023-03-25T01:02:35;7.00;99.90
54576;DHT22;40472;53.486;14.542;2023-03-25T01:05:04;7.00;99.90
54576;DHT22;40472;53.486;14.542;2023-03-25T01:07:30;7.00;99.90
54576;DHT22;40472;53.486;14.542;2023-03-25T01:09:57;7.00;99.90
54576;DHT22;40472;53.486;14.542;2023-03-25T01:12:24;7.00;99.90
54576;DHT22;40472;53.486;14.542;2023-03-25T01:14:50;6.90;99.90
54576;DHT22;40472;53.486;14.542;2023-03-25T01:17:16;6.90;99.90
54576;DHT22;40472;53.486;14.542;2023-03-25T01:19:42;6.90;99.90
54576;DHT22;40472;53.486;14.542;2023-03-25T01:22:08;6.90;99.90
54576;DHT22;40472;53.486;14.542;2023-03-25T01:24:34;6.90;99.90
54576;DHT22;40472;53.486;14.542;2023-03-25T01:27:00;6.90;99.90
54576;DHT22;40472;53.486;14.542;2023-03-25T01:29:26;6.90;99.90
54576;DHT22;40472;53.486;14.542;2023-03-25T01:31:52;6.80;99.90
54576;DHT22;40472;53.486;14.542;2023-03-25T01:34:19;6.80;99.90
54576;DHT22;40472;53.486;14.542;2023-03-25T01:36:45;6.80;99.90
54576;DHT22;40472;53.486;14.542;2023-03-25T01:39:12;6.80;99.90
54576;DHT22;40472;53.486;14.542;2023-03-25T01:41:41;6.70;99.90
54576;DHT22;40472;53.486;14.542;2023-03-25T01:46:54;6.70;99.90
54576;DHT22;40472;53.486;14.542;2023-03-25T01:49:25;6.70;99.90
54576;DHT22;40472;53.486;14.542;2023-03-25T01:52:17;6.80;99.90
54576;DHT22;40472;53.486;14.542;2023-03-25T01:54:47;6.80;99.90
54576;DHT22;40472;53.486;14.542;2023-03-25T01:57:18;6.80;99.90
54576;DHT22;40472;53.486;14.542;2023-03-25T01:59:45;6.80;99.90
54576;DHT22;40472;53.486;14.542;2023-03-25T02:02:13;6.80;99.90
54576;DHT22;40472;53.486;14.542;2023-03-25T02:04:51;6.80;99.90
54576;DHT22;40472;53.486;14.542;2023-03-25T02:07:25;6.80;99.90
54576;DHT22;40472;53.486;14.542;2023-03-25T02:09:58;6.80;99.90
54576;DHT22;40472;53.486;14.542;2023-03-25T02:12:27;6.70;99.90
54576;DHT22;40472;53.486;14.542;2023-03-25T02:14:54;6.80;99.90
54576;DHT22;40472;53.486;14.542;2023-03-25T02:39:47;6.50;99.90
54576;DHT22;40472;53.486;14.542;2023-03-25T02:47:06;6.50;99.90
54576;DHT22;40472;53.486;14.542;2023-03-25T02:49:40;6.50;99.90
54576;DHT22;40472;53.486;14.542;2023-03-25T02:52:15;6.50;99.90
54576;DHT22;40472;53.486;14.542;2023-03-25T02:54:42;6.50;99.90
54576;DHT22;40472;53.486;14.542;2023-03-25T02:57:11;6.50;99.90
54576;DHT22;40472;53.486;14.542;2023-03-25T02:59:39;6.60;99.90
54576;DHT22;40472;53.486;14.542;2023-03-25T03:02:09;6.60;99.90
54576;DHT22;40472;53.486;14.542;2023-03-25T03:04:51;6.60;99.90
54576;DHT22;40472;53.486;14.542;2023-03-25T03:07:37;6.70;99.90
54576;DHT22;40472;53.486;14.542;2023-03-25T03:10:19;6.70;99.90
54576;DHT22;40472;53.486;14.542;2023-03-25T03:15:41;6.60;99.90
54576;DHT22;40472;53.486;14.542;2023-03-25T03:21:08;6.60;99.90
54576;DHT22;40472;53.486;14.542;2023-03-25T03:34:05;6.60;99.90
54576;DHT22;40472;53.486;14.542;2023-03-25T03:36:38;6.50;99.90
54576;DHT22;40472;53.486;14.542;2023-03-25T03:39:19;6.50;99.90
54576;DHT22;40472;53.486;14.542;2023-03-25T03:41:51;6.40;99.90
54576;DHT22;40472;53.486;14.542;2023-03-25T03:44:19;6.40;99.90
54576;DHT22;40472;53.486;14.542;2023-03-25T03:46:53;6.40;99.90
54576;DHT22;40472;53.486;14.542;2023-03-25T03:49:26;6.40;99.90
54576;DHT22;40472;53.486;14.542;2023-03-25T03:52:07;6.40;99.90
54576;DHT22;40472;53.486;14.542;2023-03-25T03:54:44;6.50;99.90
54576;DHT22;40472;53.486;14.542;2023-03-25T03:57:31;6.50;99.90
54576;DHT22;40472;53.486;14.542;2023-03-25T04:05:11;6.60;99.90
54576;DHT22;40472;53.486;14.542;2023-03-25T04:07:45;6.60;99.90
54576;DHT22;40472;53.486;14.542;2023-03-25T04:10:43;6.60;99.90
54576;DHT22;40472;53.486;14.542;2023-03-25T04:13:13;6.70;99.90
54576;DHT22;40472;53.486;14.542;2023-03-25T04:15:41;6.70;99.90
54576;DHT22;40472;53.486;14.542;2023-03-25T04:18:07;6.60;99.90
54576;DHT22;40472;53.486;14.542;2023-03-25T04:20:34;6.60;99.90
54576;DHT22;40472;53.486;14.542;2023-03-25T04:23:02;6.60;99.90
54576;DHT22;40472;53.486;14.542;2023-03-25T04:25:30;6.60;99.90
54576;DHT22;40472;53.486;14.542;2023-03-25T04:27:59;6.50;99.90
54576;DHT22;40472;53.486;14.542;2023-03-25T04:30:26;6.50;99.90
54576;DHT22;40472;53.486;14.542;2023-03-25T04:33:05;6.50;99.90
54576;DHT22;40472;53.486;14.542;2023-03-25T04:35:31;6.50;99.90
54576;DHT22;40472;53.486;14.542;2023-03-25T04:37:58;6.50;99.90
54576;DHT22;40472;53.486;14.542;2023-03-25T04:40:24;6.60;99.90
54576;DHT22;40472;53.486;14.542;2023-03-25T04:42:50;6.70;99.90
54576;DHT22;40472;53.486;14.542;2023-03-25T04:45:18;6.80;99.90
54576;DHT22;40472;53.486;14.542;2023-03-25T04:47:47;6.80;99.90
54576;DHT22;40472;53.486;14.542;2023-03-25T04:52:43;7.00;99.90
54576;DHT22;40472;53.486;14.542;2023-03-25T04:55:11;7.00;99.90
54576;DHT22;40472;53.486;14.542;2023-03-25T04:57:37;7.00;99.90
54576;DHT22;40472;53.486;14.542;2023-03-25T05:00:03;7.00;99.90
54576;DHT22;40472;53.486;14.542;2023-03-25T05:02:30;7.00;99.90
54576;DHT22;40472;53.486;14.542;2023-03-25T05:04:56;7.00;99.90
54576;DHT22;40472;53.486;14.542;2023-03-25T05:07:26;7.10;99.90
54576;DHT22;40472;53.486;14.542;2023-03-25T05:09:54;7.10;99.90
54576;DHT22;40472;53.486;14.542;2023-03-25T05:12:21;7.10;99.90
54576;DHT22;40472;53.486;14.542;2023-03-25T05:14:47;7.20;99.90
54576;DHT22;40472;53.486;14.542;2023-03-25T05:17:13;7.20;99.90
54576;DHT22;40472;53.486;14.542;2023-03-25T05:19:39;7.20;99.90
54576;DHT22;40472;53.486;14.542;2023-03-25T05:22:08;7.20;99.90
54576;DHT22;40472;53.486;14.542;2023-03-25T05:24:34;7.30;99.90
54576;DHT22;40472;53.486;14.542;2023-03-25T05:26:59;7.30;99.90
54576;DHT22;40472;53.486;14.542;2023-03-25T05:29:27;7.30;99.90
54576;DHT22;40472;53.486;14.542;2023-03-25T05:31:58;7.40;99.90
54576;DHT22;40472;53.486;14.542;2023-03-25T05:34:23;7.40;99.90
54576;DHT22;40472;53.486;14.542;2023-03-25T05:36:50;7.50;99.90
54576;DHT22;40472;53.486;14.542;2023-03-25T05:39:15;7.40;99.90
54576;DHT22;40472;53.486;14.542;2023-03-25T05:41:42;7.40;99.90
54576;DHT22;40472;53.486;14.542;2023-03-25T05:44:09;7.40;99.90
54576;DHT22;40472;53.486;14.542;2023-03-25T05:46:39;7.50;99.90
54576;DHT22;40472;53.486;14.542;2023-03-25T05:49:05;7.50;99.90
54576;DHT22;40472;53.486;14.542;2023-03-25T05:51:32;7.50;99.90
54576;DHT22;40472;53.486;14.542;2023-03-25T05:54:02;7.50;99.90
54576;DHT22;40472;53.486;14.542;2023-03-25T05:56:33;7.60;99.90
54576;DHT22;40472;53.486;14.542;2023-03-25T05:58:59;7.60;99.90
54576;DHT22;40472;53.486;14.542;2023-03-25T06:01:25;7.60;99.90
54576;DHT22;40472;53.486;14.542;2023-03-25T06:03:52;7.70;99.90
54576;DHT22;40472;53.486;14.542;2023-03-25T06:06:17;7.80;99.90
54576;DHT22;40472;53.486;14.542;2023-03-25T06:08:48;7.80;99.90
54576;DHT22;40472;53.486;14.542;2023-03-25T06:11:16;7.80;99.90
54576;DHT22;40472;53.486;14.542;2023-03-25T06:13:42;7.80;99.90
54576;DHT22;40472;53.486;14.542;2023-03-25T06:16:16;7.90;99.90
54576;DHT22;40472;53.486;14.542;2023-03-25T06:18:43;7.90;99.90
54576;DHT22;40472;53.486;14.542;2023-03-25T06:21:09;7.90;99.90
54576;DHT22;40472;53.486;14.542;2023-03-25T06:23:36;8.00;99.90
54576;DHT22;40472;53.486;14.542;2023-03-25T06:26:03;8.10;99.90
54576;DHT22;40472;53.486;14.542;2023-03-25T06:28:30;8.10;99.90
54576;DHT22;40472;53.486;14.542;2023-03-25T06:30:58;8.20;99.90
54576;DHT22;40472;53.486;14.542;2023-03-25T06:33:23;8.30;99.90
54576;DHT22;40472;53.486;14.542;2023-03-25T06:35:49;8.40;99.90
54576;DHT22;40472;53.486;14.542;2023-03-25T06:38:19;8.60;99.90
54576;DHT22;40472;53.486;14.542;2023-03-25T06:40:46;8.60;99.90
54576;DHT22;40472;53.486;14.542;2023-03-25T06:43:12;8.70;99.90
54576;DHT22;40472;53.486;14.542;2023-03-25T06:45:38;8.80;99.90
54576;DHT22;40472;53.486;14.542;2023-03-25T06:48:04;8.80;99.90
54576;DHT22;40472;53.486;14.542;2023-03-25T06:50:30;8.80;99.90
54576;DHT22;40472;53.486;14.542;2023-03-25T06:52:56;8.80;99.90
54576;DHT22;40472;53.486;14.542;2023-03-25T06:55:22;8.80;99.90
54576;DHT22;40472;53.486;14.542;2023-03-25T06:57:48;8.80;99.90
54576;DHT22;40472;53.486;14.542;2023-03-25T07:00:14;8.80;99.90
54576;DHT22;40472;53.486;14.542;2023-03-25T07:02:45;8.90;99.90
54576;DHT22;40472;53.486;14.542;2023-03-25T07:05:11;9.00;99.90
54576;DHT22;40472;53.486;14.542;2023-03-25T07:07:36;8.90;99.90
54576;DHT22;40472;53.486;14.542;2023-03-25T07:10:03;8.90;99.90
54576;DHT22;40472;53.486;14.542;2023-03-25T07:12:29;8.80;99.90
54576;DHT22;40472;53.486;14.542;2023-03-25T07:14:56;8.80;99.90
54576;DHT22;40472;53.486;14.542;2023-03-25T07:17:22;8.70;99.90
54576;DHT22;40472;53.486;14.542;2023-03-25T07:19:49;8.70;99.90
54576;DHT22;40472;53.486;14.542;2023-03-25T07:22:15;8.70;99.90
54576;DHT22;40472;53.486;14.542;2023-03-25T07:24:41;8.80;99.90
54576;DHT22;40472;53.486;14.542;2023-03-25T07:27:10;8.80;99.90
54576;DHT22;40472;53.486;14.542;2023-03-25T07:29:35;9.00;99.90
54576;DHT22;40472;53.486;14.542;2023-03-25T07:32:01;9.20;99.90
54576;DHT22;40472;53.486;14.542;2023-03-25T07:34:27;9.30;99.90
54576;DHT22;40472;53.486;14.542;2023-03-25T07:36:53;9.40;99.90
54576;DHT22;40472;53.486;14.542;2023-03-25T07:39:19;9.50;99.90
54576;DHT22;40472;53.486;14.542;2023-03-25T07:41:46;9.60;99.90
54576;DHT22;40472;53.486;14.542;2023-03-25T07:44:12;9.40;99.90
54576;DHT22;40472;53.486;14.542;2023-03-25T07:46:38;9.40;99.90
54576;DHT22;40472;53.486;14.542;2023-03-25T07:49:04;9.40;99.90
54576;DHT22;40472;53.486;14.542;2023-03-25T07:51:30;9.40;99.90
54576;DHT22;40472;53.486;14.542;2023-03-25T07:53:57;9.50;99.90
54576;DHT22;40472;53.486;14.542;2023-03-25T07:56:23;9.60;99.90
54576;DHT22;40472;53.486;14.542;2023-03-25T07:58:49;9.60;99.90
54576;DHT22;40472;53.486;14.542;2023-03-25T08:01:14;9.60;99.90
54576;DHT22;40472;53.486;14.542;2023-03-25T08:03:40;9.60;99.90
54576;DHT22;40472;53.486;14.542;2023-03-25T08:06:07;9.60;99.90
54576;DHT22;40472;53.486;14.542;2023-03-25T08:08:33;9.70;99.90
54576;DHT22;40472;53.486;14.542;2023-03-25T08:11:00;9.60;99.90
54576;DHT22;40472;53.486;14.542;2023-03-25T08:13:26;9.60;99.90
54576;DHT22;40472;53.486;14.542;2023-03-25T08:15:52;9.50;99.90
54576;DHT22;40472;53.486;14.542;2023-03-25T08:18:18;9.50;99.90
54576;DHT22;40472;53.486;14.542;2023-03-25T08:20:44;9.40;99.90
54576;DHT22;40472;53.486;14.542;2023-03-25T08:23:11;9.50;99.90
54576;DHT22;40472;53.486;14.542;2023-03-25T08:25:43;9.50;99.90
54576;DHT22;40472;53.486;14.542;2023-03-25T08:28:09;9.60;99.90
54576;DHT22;40472;53.486;14.542;2023-03-25T08:30:37;9.70;99.90
54576;DHT22;40472;53.486;14.542;2023-03-25T08:33:07;9.60;99.90
54576;DHT22;40472;53.486;14.542;2023-03-25T08:35:35;9.70;99.90
54576;DHT22;40472;53.486;14.542;2023-03-25T08:38:01;9.70;99.90
54576;DHT22;40472;53.486;14.542;2023-03-25T08:40:30;9.80;99.90
54576;DHT22;40472;53.486;14.542;2023-03-25T08:42:57;9.80;99.90
54576;DHT22;40472;53.486;14.542;2023-03-25T08:45:23;9.70;99.90
54576;DHT22;40472;53.486;14.542;2023-03-25T08:47:48;9.90;99.90
54576;DHT22;40472;53.486;14.542;2023-03-25T08:50:14;10.00;99.90
54576;DHT22;40472;53.486;14.542;2023-03-25T08:52:40;10.10;99.90
54576;DHT22;40472;53.486;14.542;2023-03-25T08:55:06;10.40;99.90
54576;DHT22;40472;53.486;14.542;2023-03-25T08:57:34;10.60;99.90
54576;DHT22;40472;53.486;14.542;2023-03-25T09:00:01;10.60;99.90
54576;DHT22;40472;53.486;14.542;2023-03-25T09:02:27;10.80;99.90
54576;DHT22;40472;53.486;14.542;2023-03-25T09:04:53;10.90;99.90
54576;DHT22;40472;53.486;14.542;2023-03-25T09:07:19;10.90;99.90
54576;DHT22;40472;53.486;14.542;2023-03-25T09:09:45;10.90;99.90
54576;DHT22;40472;53.486;14.542;2023-03-25T09:12:11;11.10;99.90
54576;DHT22;40472;53.486;14.542;2023-03-25T09:14:37;10.80;99.90
54576;DHT22;40472;53.486;14.542;2023-03-25T09:17:03;10.90;99.90
54576;DHT22;40472;53.486;14.542;2023-03-25T09:19:32;10.90;99.90
54576;DHT22;40472;53.486;14.542;2023-03-25T09:21:58;10.90;99.90
54576;DHT22;40472;53.486;14.542;2023-03-25T09:24:23;11.00;99.90
54576;DHT22;40472;53.486;14.542;2023-03-25T09:26:50;11.30;99.90
54576;DHT22;40472;53.486;14.542;2023-03-25T09:29:16;11.30;99.90
54576;DHT22;40472;53.486;14.542;2023-03-25T09:34:31;11.30;99.90
54576;DHT22;40472;53.486;14.542;2023-03-25T09:36:57;11.10;99.90
54576;DHT22;40472;53.486;14.542;2023-03-25T09:39:23;11.00;99.90
54576;DHT22;40472;53.486;14.542;2023-03-25T09:47:37;10.40;99.90
54576;DHT22;40472;53.486;14.542;2023-03-25T09:50:09;10.60;99.90
54576;DHT22;40472;53.486;14.542;2023-03-25T09:55:13;10.40;99.90
54576;DHT22;40472;53.486;14.542;2023-03-25T09:57:45;10.60;99.90
54576;DHT22;40472;53.486;14.542;2023-03-25T10:00:19;10.60;99.90
54576;DHT22;40472;53.486;14.542;2023-03-25T10:05:46;10.90;99.90
54576;DHT22;40472;53.486;14.542;2023-03-25T10:11:02;10.90;99.90
54576;DHT22;40472;53.486;14.542;2023-03-25T10:21:38;10.90;99.90
54576;DHT22;40472;53.486;14.542;2023-03-25T10:27:01;10.70;99.90
54576;DHT22;40472;53.486;14.542;2023-03-25T10:32:00;10.90;99.90
54576;DHT22;40472;53.486;14.542;2023-03-25T10:34:45;10.80;99.90
54576;DHT22;40472;53.486;14.542;2023-03-25T10:37:12;10.80;99.90
54576;DHT22;40472;53.486;14.542;2023-03-25T10:39:42;10.90;99.90
54576;DHT22;40472;53.486;14.542;2023-03-25T10:42:30;10.90;99.90
54576;DHT22;40472;53.486;14.542;2023-03-25T10:44:59;10.80;99.90
54576;DHT22;40472;53.486;14.542;2023-03-25T10:47:32;10.80;99.90
54576;DHT22;40472;53.486;14.542;2023-03-25T10:50:01;11.00;99.90
54576;DHT22;40472;53.486;14.542;2023-03-25T10:52:27;11.50;99.90
54576;DHT22;40472;53.486;14.542;2023-03-25T10:54:54;12.10;99.90
54576;DHT22;40472;53.486;14.542;2023-03-25T10:57:39;12.40;99.90
54576;DHT22;40472;53.486;14.542;2023-03-25T11:03:02;12.30;99.90
54576;DHT22;40472;53.486;14.542;2023-03-25T11:05:29;12.30;99.90
54576;DHT22;40472;53.486;14.542;2023-03-25T11:07:58;12.30;99.90
54576;DHT22;40472;53.486;14.542;2023-03-25T11:10:30;12.30;99.90
54576;DHT22;40472;53.486;14.542;2023-03-25T11:13:00;12.10;99.90
54576;DHT22;40472;53.486;14.542;2023-03-25T11:15:35;11.90;99.90
54576;DHT22;40472;53.486;14.542;2023-03-25T11:18:13;11.70;99.90
54576;DHT22;40472;53.486;14.542;2023-03-25T11:20:50;11.50;99.90
54576;DHT22;40472;53.486;14.542;2023-03-25T11:23:30;11.10;99.90
54576;DHT22;40472;53.486;14.542;2023-03-25T11:26:03;11.10;99.90
54576;DHT22;40472;53.486;14.542;2023-03-25T11:28:37;11.20;99.90
54576;DHT22;40472;53.486;14.542;2023-03-25T11:33:59;11.60;99.90
54576;DHT22;40472;53.486;14.542;2023-03-25T11:36:29;11.70;99.90
54576;DHT22;40472;53.486;14.542;2023-03-25T11:39:01;11.70;99.90
54576;DHT22;40472;53.486;14.542;2023-03-25T11:41:30;11.80;99.90
54576;DHT22;40472;53.486;14.542;2023-03-25T11:43:57;11.60;99.90
54576;DHT22;40472;53.486;14.542;2023-03-25T11:46:24;11.80;99.90
54576;DHT22;40472;53.486;14.542;2023-03-25T11:48:51;11.90;99.90
54576;DHT22;40472;53.486;14.542;2023-03-25T11:51:31;12.00;99.90
54576;DHT22;40472;53.486;14.542;2023-03-25T11:54:10;11.90;99.90
54576;DHT22;40472;53.486;14.542;2023-03-25T11:56:40;11.90;99.90
54576;DHT22;40472;53.486;14.542;2023-03-25T11:59:32;11.90;99.90
54576;DHT22;40472;53.486;14.542;2023-03-25T12:02:09;11.90;99.90
54576;DHT22;40472;53.486;14.542;2023-03-25T12:05:08;11.90;99.90
54576;DHT22;40472;53.486;14.542;2023-03-25T12:07:48;11.80;99.90
54576;DHT22;40472;53.486;14.542;2023-03-25T12:10:19;12.00;99.90
54576;DHT22;40472;53.486;14.542;2023-03-25T12:13:06;11.90;99.90
54576;DHT22;40472;53.486;14.542;2023-03-25T12:24:00;11.90;99.90
54576;DHT22;40472;53.486;14.542;2023-03-25T12:26:52;11.80;99.90
54576;DHT22;40472;53.486;14.542;2023-03-25T12:32:28;10.70;99.90
54576;DHT22;40472;53.486;14.542;2023-03-25T12:43:09;9.70;99.90
54576;DHT22;40472;53.486;14.542;2023-03-25T12:51:12;10.20;99.90
54576;DHT22;40472;53.486;14.542;2023-03-25T12:56:42;10.90;99.90
54576;DHT22;40472;53.486;14.542;2023-03-25T12:59:20;11.10;99.90
54576;DHT22;40472;53.486;14.542;2023-03-25T13:06:59;12.20;99.90
54576;DHT22;40472;53.486;14.542;2023-03-25T13:09:37;12.40;99.90
54576;DHT22;40472;53.486;14.542;2023-03-25T13:12:21;12.40;99.90
54576;DHT22;40472;53.486;14.542;2023-03-25T13:17:50;12.20;99.90
54576;DHT22;40472;53.486;14.542;2023-03-25T13:20:17;12.00;99.90
54576;DHT22;40472;53.486;14.542;2023-03-25T13:22:48;11.90;99.90
54576;DHT22;40472;53.486;14.542;2023-03-25T13:27:44;11.40;99.90
54576;DHT22;40472;53.486;14.542;2023-03-25T13:30:21;11.10;99.90
54576;DHT22;40472;53.486;14.542;2023-03-25T13:32:53;10.70;99.90
54576;DHT22;40472;53.486;14.542;2023-03-25T13:35:46;10.30;99.90
54576;DHT22;40472;53.486;14.542;2023-03-25T13:38:18;9.70;99.90
54576;DHT22;40472;53.486;14.542;2023-03-25T13:46:18;8.80;99.90
54576;DHT22;40472;53.486;14.542;2023-03-25T13:49:05;8.80;99.90
54576;DHT22;40472;53.486;14.542;2023-03-25T13:51:34;8.70;99.90
54576;DHT22;40472;53.486;14.542;2023-03-25T13:54:30;8.80;99.90
54576;DHT22;40472;53.486;14.542;2023-03-25T14:02:31;9.20;99.90
54576;DHT22;40472;53.486;14.542;2023-03-25T14:13:18;9.60;99.90
54576;DHT22;40472;53.486;14.542;2023-03-25T14:18:24;9.90;99.90
54576;DHT22;40472;53.486;14.542;2023-03-25T14:20:50;10.10;99.90
54576;DHT22;40472;53.486;14.542;2023-03-25T14:23:18;10.50;99.90
54576;DHT22;40472;53.486;14.542;2023-03-25T14:25:52;10.80;99.90
54576;DHT22;40472;53.486;14.542;2023-03-25T14:28:43;10.80;99.90
54576;DHT22;40472;53.486;14.542;2023-03-25T14:42:01;10.00;99.90
54576;DHT22;40472;53.486;14.542;2023-03-25T14:44:31;9.90;99.90
54576;DHT22;40472;53.486;14.542;2023-03-25T14:47:29;9.00;99.90
54576;DHT22;40472;53.486;14.542;2023-03-25T14:53:03;8.10;99.90
54576;DHT22;40472;53.486;14.542;2023-03-25T14:55:49;7.70;99.90
54576;DHT22;40472;53.486;14.542;2023-03-25T14:58:26;7.50;99.90
54576;DHT22;40472;53.486;14.542;2023-03-25T15:00:57;7.20;99.90
54576;DHT22;40472;53.486;14.542;2023-03-25T15:03:35;7.00;99.90
54576;DHT22;40472;53.486;14.542;2023-03-25T15:06:03;6.90;99.90
54576;DHT22;40472;53.486;14.542;2023-03-25T15:08:40;6.80;99.90
54576;DHT22;40472;53.486;14.542;2023-03-25T15:11:11;6.80;99.90
54576;DHT22;40472;53.486;14.542;2023-03-25T15:13:41;6.70;99.90
54576;DHT22;40472;53.486;14.542;2023-03-25T15:21:23;6.90;99.90
54576;DHT22;40472;53.486;14.542;2023-03-25T15:26:36;6.90;99.90
54576;DHT22;40472;53.486;14.542;2023-03-25T15:32:13;7.10;99.90
54576;DHT22;40472;53.486;14.542;2023-03-25T15:56:56;8.20;99.90
54576;DHT22;40472;53.486;14.542;2023-03-25T15:59:34;8.00;99.90
54576;DHT22;40472;53.486;14.542;2023-03-25T16:02:22;7.90;99.90
54576;DHT22;40472;53.486;14.542;2023-03-25T16:04:49;7.80;99.90
54576;DHT22;40472;53.486;14.542;2023-03-25T16:07:18;7.70;99.90
54576;DHT22;40472;53.486;14.542;2023-03-25T16:09:47;7.70;99.90
54576;DHT22;40472;53.486;14.542;2023-03-25T16:12:22;7.60;99.90
54576;DHT22;40472;53.486;14.542;2023-03-25T16:14:49;7.50;99.90
54576;DHT22;40472;53.486;14.542;2023-03-25T16:17:18;7.50;99.90
54576;DHT22;40472;53.486;14.542;2023-03-25T16:19:51;7.40;99.90
54576;DHT22;40472;53.486;14.542;2023-03-25T16:22:27;7.50;99.90
54576;DHT22;40472;53.486;14.542;2023-03-25T16:24:56;7.50;99.90
54576;DHT22;40472;53.486;14.542;2023-03-25T16:29:55;7.50;99.90
54576;DHT22;40472;53.486;14.542;2023-03-25T16:32:31;7.60;99.90
54576;DHT22;40472;53.486;14.542;2023-03-25T16:34:57;7.50;99.90
54576;DHT22;40472;53.486;14.542;2023-03-25T16:37:24;7.50;99.90
54576;DHT22;40472;53.486;14.542;2023-03-25T16:39:56;7.60;99.90
54576;DHT22;40472;53.486;14.542;2023-03-25T16:42:30;7.60;99.90
54576;DHT22;40472;53.486;14.542;2023-03-25T16:45:01;7.60;99.90
54576;DHT22;40472;53.486;14.542;2023-03-25T16:47:30;7.60;99.90
54576;DHT22;40472;53.486;14.542;2023-03-25T16:49:59;7.60;99.90
54576;DHT22;40472;53.486;14.542;2023-03-25T16:52:27;7.60;99.90
54576;DHT22;40472;53.486;14.542;2023-03-25T16:57:25;7.60;99.90
54576;DHT22;40472;53.486;14.542;2023-03-25T16:59:53;7.60;99.90
54576;DHT22;40472;53.486;14.542;2023-03-25T17:02:23;7.60;99.90
54576;DHT22;40472;53.486;14.542;2023-03-25T17:04:49;7.60;99.90
54576;DHT22;40472;53.486;14.542;2023-03-25T17:07:26;7.60;99.90
54576;DHT22;40472;53.486;14.542;2023-03-25T17:09:58;7.60;99.90
54576;DHT22;40472;53.486;14.542;2023-03-25T17:12:26;7.60;99.90
54576;DHT22;40472;53.486;14.542;2023-03-25T17:14:57;7.60;99.90
54576;DHT22;40472;53.486;14.542;2023-03-25T17:17:44;7.60;99.90
54576;DHT22;40472;53.486;14.542;2023-03-25T17:20:30;7.60;99.90
54576;DHT22;40472;53.486;14.542;2023-03-25T17:23:05;7.60;99.90
54576;DHT22;40472;53.486;14.542;2023-03-25T17:25:47;7.50;99.90
54576;DHT22;40472;53.486;14.542;2023-03-25T17:28:24;7.40;99.90
54576;DHT22;40472;53.486;14.542;2023-03-25T17:30:55;7.40;99.90
54576;DHT22;40472;53.486;14.542;2023-03-25T17:33:34;7.30;99.90
54576;DHT22;40472;53.486;14.542;2023-03-25T17:36:09;7.30;99.90
54576;DHT22;40472;53.486;14.542;2023-03-25T17:38:40;7.30;99.90
54576;DHT22;40472;53.486;14.542;2023-03-25T17:41:10;7.20;99.90
54576;DHT22;40472;53.486;14.542;2023-03-25T17:43:59;7.10;99.90
54576;DHT22;40472;53.486;14.542;2023-03-25T17:46:27;7.10;99.90
54576;DHT22;40472;53.486;14.542;2023-03-25T17:48:54;7.00;99.90
54576;DHT22;40472;53.486;14.542;2023-03-25T17:51:27;7.00;99.90
54576;DHT22;40472;53.486;14.542;2023-03-25T17:53:54;7.00;99.90
54576;DHT22;40472;53.486;14.542;2023-03-25T17:56:25;7.00;99.90
54576;DHT22;40472;53.486;14.542;2023-03-25T17:59:00;7.00;99.90
54576;DHT22;40472;53.486;14.542;2023-03-25T18:01:27;7.00;99.90
54576;DHT22;40472;53.486;14.542;2023-03-25T18:03:54;7.10;99.90
54576;DHT22;40472;53.486;14.542;2023-03-25T18:06:20;7.10;99.90
54576;DHT22;40472;53.486;14.542;2023-03-25T18:08:47;7.20;99.90
54576;DHT22;40472;53.486;14.542;2023-03-25T18:11:13;7.10;99.90
54576;DHT22;40472;53.486;14.542;2023-03-25T18:13:39;7.10;99.90
54576;DHT22;40472;53.486;14.542;2023-03-25T18:16:10;7.00;99.90
54576;DHT22;40472;53.486;14.542;2023-03-25T18:18:36;7.10;99.90
54576;DHT22;40472;53.486;14.542;2023-03-25T18:21:02;7.10;99.90
54576;DHT22;40472;53.486;14.542;2023-03-25T18:23:29;7.00;99.90
54576;DHT22;40472;53.486;14.542;2023-03-25T18:25:56;7.00;99.90
54576;DHT22;40472;53.486;14.542;2023-03-25T18:28:26;7.00;99.90
54576;DHT22;40472;53.486;14.542;2023-03-25T18:30:56;7.00;99.90
54576;DHT22;40472;53.486;14.542;2023-03-25T18:33:24;6.90;99.90
54576;DHT22;40472;53.486;14.542;2023-03-25T18:35:50;6.90;99.90
54576;DHT22;40472;53.486;14.542;2023-03-25T18:38:25;6.90;99.90
54576;DHT22;40472;53.486;14.542;2023-03-25T18:40:52;6.90;99.90
54576;DHT22;40472;53.486;14.542;2023-03-25T18:43:19;6.80;99.90
54576;DHT22;40472;53.486;14.542;2023-03-25T18:45:46;6.80;99.90
54576;DHT22;40472;53.486;14.542;2023-03-25T18:48:13;6.80;99.90
54576;DHT22;40472;53.486;14.542;2023-03-25T18:50:43;6.80;99.90
54576;DHT22;40472;53.486;14.542;2023-03-25T18:53:13;6.80;99.90
54576;DHT22;40472;53.486;14.542;2023-03-25T18:55:41;6.80;99.90
54576;DHT22;40472;53.486;14.542;2023-03-25T18:58:15;6.80;99.90
54576;DHT22;40472;53.486;14.542;2023-03-25T19:00:42;6.80;99.90
54576;DHT22;40472;53.486;14.542;2023-03-25T19:03:08;6.80;99.90
54576;DHT22;40472;53.486;14.542;2023-03-25T19:05:35;6.80;99.90
54576;DHT22;40472;53.486;14.542;2023-03-25T19:08:01;6.80;99.90